createdAt,value
2018-11-28T00:01:45.287Z,15.20
2018-11-28T00:03:54.199Z,14.77
2018-11-28T00:06:03.075Z,14.70
2018-11-28T00:08:12.353Z,13.60
2018-11-28T00:10:20.889Z,14.60
2018-11-28T00:12:28.964Z,14.77
2018-11-28T00:14:37.007Z,14.30
2018-11-28T00:16:44.970Z,15.13
2018-11-28T00:18:53.608Z,15.33
2018-11-28T00:21:01.561Z,15.37
2018-11-28T00:23:09.507Z,14.33
2018-11-28T00:25:18.458Z,16.63
2018-11-28T00:27:26.495Z,14.40
2018-11-28T00:29:34.664Z,15.73
2018-11-28T00:31:42.743Z,15.27
2018-11-28T00:33:51.171Z,15.90
2018-11-28T00:36:00.109Z,15.53
2018-11-28T00:38:08.075Z,14.83
2018-11-28T00:40:20.420Z,15.40
2018-11-28T00:42:31.710Z,14.83
2018-11-28T00:44:39.853Z,15.07
2018-11-28T00:46:48.027Z,14.87
2018-11-28T00:48:55.956Z,15.95
2018-11-28T00:51:04.143Z,15.40
2018-11-28T00:53:12.092Z,15.80
2018-11-28T00:55:20.517Z,16.20
2018-11-28T00:57:28.504Z,15.13
2018-11-28T00:59:36.466Z,14.90
2018-11-28T01:01:44.611Z,15.77
2018-11-28T01:03:52.844Z,15.97
2018-11-28T01:06:01.231Z,14.00
2018-11-28T01:08:10.307Z,15.23
2018-11-28T01:10:20.044Z,15.73
2018-11-28T01:12:28.088Z,16.40
2018-11-28T01:14:36.438Z,16.97
2018-11-28T01:16:44.409Z,16.67
2018-11-28T01:18:52.548Z,16.03
2018-11-28T01:20:58.011Z,14.73
2018-11-28T01:23:05.955Z,16.20
2018-11-28T01:25:15.401Z,15.10
2018-11-28T01:27:23.823Z,15.80
2018-11-28T01:29:31.858Z,16.30
2018-11-28T01:31:39.963Z,15.97
2018-11-28T01:33:48.281Z,15.87
2018-11-28T01:36:05.338Z,17.20
2018-11-28T01:38:13.429Z,16.70
2018-11-28T01:40:25.756Z,15.63
2018-11-28T01:42:33.940Z,16.90
2018-11-28T01:44:41.948Z,14.67
2018-11-28T01:46:50.039Z,16.63
2018-11-28T01:48:57.993Z,16.40
2018-11-28T01:51:06.552Z,14.80
2018-11-28T01:53:14.601Z,17.27
2018-11-28T01:55:24.485Z,15.97
2018-11-28T01:57:32.479Z,15.50
2018-11-28T01:59:50.693Z,15.70
2018-11-28T02:01:56.729Z,17.27
2018-11-28T02:04:04.686Z,16.12
2018-11-28T02:06:12.685Z,16.52
2018-11-28T02:08:20.891Z,17.17
2018-11-28T02:10:29.200Z,15.23
2018-11-28T02:12:37.245Z,17.40
2018-11-28T02:14:45.188Z,15.17
2018-11-28T02:16:53.903Z,16.13
2018-11-28T02:19:01.947Z,14.97
2018-11-28T02:21:07.517Z,15.40
2018-11-28T02:23:15.671Z,18.07
2018-11-28T02:25:23.994Z,24.47
2018-11-28T02:27:32.244Z,22.13
2018-11-28T02:29:40.386Z,23.27
2018-11-28T02:31:50.018Z,17.33
2018-11-28T02:33:57.971Z,16.37
2018-11-28T02:36:06.016Z,14.37
2018-11-28T02:38:14.353Z,13.40
2018-11-28T02:40:24.124Z,14.73
2018-11-28T02:42:32.534Z,16.57
2018-11-28T02:44:40.504Z,15.27
2018-11-28T02:46:48.439Z,14.50
2018-11-28T02:48:56.474Z,15.73
2018-11-28T02:51:04.423Z,13.40
2018-11-28T02:53:12.376Z,13.13
2018-11-28T02:55:21.910Z,13.77
2018-11-28T02:57:29.919Z,13.32
2018-11-28T02:59:37.864Z,12.18
2018-11-28T03:01:46.139Z,12.73
2018-11-28T03:03:54.256Z,16.53
2018-11-28T03:06:02.403Z,16.10
2018-11-28T03:08:10.591Z,18.10
2018-11-28T03:10:28.290Z,16.00
2018-11-28T03:12:36.253Z,12.80
2018-11-28T03:14:44.705Z,11.93
2018-11-28T03:16:52.823Z,14.57
2018-11-28T03:19:01.023Z,16.65
2018-11-28T03:21:10.581Z,17.77
2018-11-28T03:23:18.959Z,15.60
2018-11-28T03:25:27.758Z,13.70
2018-11-28T03:27:35.872Z,14.83
2018-11-28T03:29:43.999Z,13.87
2018-11-28T03:31:51.926Z,10.10
2018-11-28T03:34:00.954Z,10.86
2018-11-28T03:36:09.285Z,12.65
2018-11-28T03:38:17.267Z,16.90
2018-11-28T03:40:25.736Z,16.00
2018-11-28T03:42:33.678Z,15.00
2018-11-28T03:44:41.827Z,13.30
2018-11-28T03:46:50.264Z,12.20
2018-11-28T03:48:58.637Z,14.60
2018-11-28T03:51:06.701Z,14.67
2018-11-28T03:53:14.730Z,15.00
2018-11-28T03:55:22.848Z,13.30
2018-11-28T03:57:30.884Z,13.70
2018-11-28T03:59:38.811Z,14.10
2018-11-28T04:01:47.451Z,13.50
2018-11-28T04:03:55.491Z,14.00
2018-11-28T04:06:03.844Z,15.30
2018-11-28T04:08:12.517Z,15.43
2018-11-28T04:10:20.701Z,14.77
2018-11-28T04:12:28.760Z,13.60
2018-11-28T04:14:36.713Z,14.80
2018-11-28T04:16:44.632Z,14.77
2018-11-28T04:18:52.923Z,13.40
2018-11-28T04:21:01.157Z,13.85
2018-11-28T04:23:09.143Z,13.05
2018-11-28T04:25:14.251Z,14.28
2018-11-28T04:27:22.194Z,14.50
2018-11-28T04:29:30.215Z,14.43
2018-11-28T04:31:38.147Z,13.40
2018-11-28T04:33:46.200Z,14.83
2018-11-28T04:35:54.162Z,14.10
2018-11-28T04:38:02.309Z,12.95
2018-11-28T04:40:23.024Z,13.90
2018-11-28T04:42:31.278Z,14.80
2018-11-28T04:44:39.322Z,13.33
2018-11-28T04:46:47.453Z,16.77
2018-11-28T04:48:55.457Z,16.47
2018-11-28T04:51:03.511Z,14.73
2018-11-28T04:53:11.675Z,13.87
2018-11-28T04:55:21.081Z,15.60
2018-11-28T04:57:29.005Z,12.20
2018-11-28T04:59:37.311Z,12.47
2018-11-28T05:01:48.940Z,14.73
2018-11-28T05:03:59.805Z,12.27
2018-11-28T05:06:08.052Z,13.67
2018-11-28T05:08:16.312Z,13.50
2018-11-28T05:10:29.016Z,13.00
2018-11-28T05:12:37.119Z,14.20
2018-11-28T05:14:45.166Z,13.30
2018-11-28T05:16:53.302Z,14.00
2018-11-28T05:19:02.048Z,13.87
2018-11-28T05:21:10.322Z,15.78
2018-11-28T05:23:18.447Z,13.40
2018-11-28T05:25:23.482Z,14.00
2018-11-28T05:27:32.117Z,13.27
2018-11-28T05:29:40.705Z,14.87
2018-11-28T05:31:48.752Z,13.37
2018-11-28T05:33:57.040Z,13.43
2018-11-28T05:36:05.084Z,12.77
2018-11-28T05:38:19.435Z,14.90
2018-11-28T05:40:29.710Z,13.87
2018-11-28T05:42:37.675Z,14.03
2018-11-28T05:44:45.657Z,13.37
2018-11-28T05:46:54.034Z,13.20
2018-11-28T05:49:02.034Z,13.40
2018-11-28T05:51:10.044Z,13.33
2018-11-28T05:53:18.031Z,14.30
2018-11-28T05:55:26.486Z,13.03
2018-11-28T05:57:34.527Z,13.63
2018-11-28T05:59:43.389Z,14.37
2018-11-28T06:01:51.362Z,14.25
2018-11-28T06:03:59.449Z,14.38
2018-11-28T06:06:07.477Z,14.27
2018-11-28T06:08:15.429Z,15.03
2018-11-28T06:10:23.454Z,12.87
2018-11-28T06:12:31.495Z,14.47
2018-11-28T06:14:39.551Z,12.50
2018-11-28T06:16:47.468Z,12.97
2018-11-28T06:18:55.549Z,14.10
2018-11-28T06:21:03.472Z,12.63
2018-11-28T06:23:11.905Z,12.97
2018-11-28T06:25:20.603Z,13.97
2018-11-28T06:27:28.754Z,14.90
2018-11-28T06:29:36.821Z,14.80
2018-11-28T06:31:44.749Z,14.43
2018-11-28T06:33:53.008Z,14.43
2018-11-28T06:36:01.883Z,13.47
2018-11-28T06:38:09.957Z,13.00
2018-11-28T06:40:23.812Z,13.90
2018-11-28T06:42:30.071Z,14.80
2018-11-28T06:44:38.422Z,13.73
2018-11-28T06:46:46.412Z,15.70
2018-11-28T06:48:54.393Z,14.57
2018-11-28T06:51:02.504Z,13.53
2018-11-28T06:53:10.616Z,12.70
2018-11-28T06:55:27.811Z,12.07
2018-11-28T06:57:36.215Z,11.77
2018-11-28T06:59:44.508Z,13.15
2018-11-28T07:01:53.397Z,14.37
2018-11-28T07:04:03.616Z,13.00
2018-11-28T07:06:11.661Z,13.67
2018-11-28T07:08:20.092Z,11.90
2018-11-28T07:10:28.091Z,12.90
2018-11-28T07:12:36.513Z,12.78
2018-11-28T07:14:44.751Z,12.60
2018-11-28T07:16:52.736Z,13.10
2018-11-28T07:19:12.413Z,13.43
2018-11-28T07:21:20.544Z,12.40
2018-11-28T07:23:28.553Z,12.40
2018-11-28T07:25:36.616Z,13.90
2018-11-28T07:27:45.148Z,13.32
2018-11-28T07:29:51.510Z,15.50
2018-11-28T07:31:59.903Z,15.73
2018-11-28T07:34:08.230Z,15.27
2018-11-28T07:36:16.355Z,14.80
2018-11-28T07:38:24.367Z,14.80
2018-11-28T07:40:32.320Z,14.53
2018-11-28T07:42:40.880Z,14.67
2018-11-28T07:44:48.833Z,12.95
2018-11-28T07:46:56.898Z,13.40
2018-11-28T07:49:07.602Z,14.98
2018-11-28T07:51:14.131Z,12.43
2018-11-28T07:53:22.317Z,14.57
2018-11-28T07:55:30.350Z,12.70
2018-11-28T07:57:38.327Z,13.63
2018-11-28T07:59:46.680Z,12.00
2018-11-28T08:01:54.824Z,11.80
2018-11-28T08:04:03.092Z,12.05
2018-11-28T08:06:11.200Z,12.53
2018-11-28T08:08:19.664Z,12.33
2018-11-28T08:10:27.890Z,12.50
2018-11-28T08:12:36.182Z,12.50
2018-11-28T08:14:45.130Z,13.03
2018-11-28T08:16:53.288Z,12.33
2018-11-28T08:19:01.965Z,12.30
2018-11-28T08:21:10.162Z,12.33
2018-11-28T08:23:18.211Z,12.93
2018-11-28T08:25:27.916Z,12.85
2018-11-28T08:27:36.465Z,11.77
2018-11-28T08:29:45.988Z,12.20
2018-11-28T08:31:54.793Z,12.17
2018-11-28T08:34:02.785Z,12.40
2018-11-28T08:36:10.758Z,12.63
2018-11-28T08:38:18.986Z,12.37
2018-11-28T08:40:30.232Z,12.20
2018-11-28T08:42:38.191Z,11.93
2018-11-28T08:44:46.204Z,13.13
2018-11-28T08:46:54.212Z,12.55
2018-11-28T08:49:03.161Z,13.58
2018-11-28T08:51:11.294Z,14.57
2018-11-28T08:53:19.401Z,12.57
2018-11-28T08:55:27.363Z,13.80
2018-11-28T08:57:35.329Z,12.63
2018-11-28T08:59:43.694Z,13.60
2018-11-28T09:01:54.288Z,13.07
2018-11-28T09:04:02.399Z,13.08
2018-11-28T09:06:10.752Z,11.70
2018-11-28T09:08:19.604Z,12.83
2018-11-28T09:10:28.514Z,13.80
2018-11-28T09:12:36.627Z,14.20
2018-11-28T09:14:44.808Z,12.83
2018-11-28T09:16:52.852Z,14.47
2018-11-28T09:19:00.942Z,13.43
2018-11-28T09:21:09.420Z,13.30
2018-11-28T09:23:17.568Z,13.40
2018-11-28T09:25:25.641Z,13.27
2018-11-28T09:27:33.689Z,13.00
2018-11-28T09:29:41.924Z,14.37
2018-11-28T09:31:50.070Z,13.40
2018-11-28T09:33:58.067Z,13.50
2018-11-28T09:36:07.390Z,12.30
2018-11-28T09:38:15.360Z,12.87
2018-11-28T09:40:27.979Z,12.63
2018-11-28T09:42:35.988Z,13.13
2018-11-28T09:44:44.076Z,12.97
2018-11-28T09:46:52.238Z,12.00
2018-11-28T09:49:00.432Z,11.57
2018-11-28T09:51:09.256Z,11.40
2018-11-28T09:53:17.286Z,11.57
2018-11-28T09:55:26.716Z,12.50
2018-11-28T09:57:35.572Z,11.90
2018-11-28T09:59:43.640Z,12.03
2018-11-28T10:01:52.309Z,11.37
2018-11-28T10:04:00.366Z,12.27
2018-11-28T10:06:08.583Z,15.27
2018-11-28T10:08:16.553Z,17.65
2018-11-28T10:10:25.056Z,12.07
2018-11-28T10:12:33.059Z,17.17
2018-11-28T10:14:41.917Z,13.43
2018-11-28T10:16:50.675Z,16.90
2018-11-28T10:18:58.849Z,13.23
2018-11-28T10:21:07.029Z,17.27
2018-11-28T10:23:15.238Z,13.40
2018-11-28T10:25:27.503Z,13.37
2018-11-28T10:27:35.457Z,12.33
2018-11-28T10:29:43.484Z,12.53
2018-11-28T10:31:51.581Z,12.57
2018-11-28T10:33:59.587Z,14.20
2018-11-28T10:36:08.833Z,12.90
2018-11-28T10:38:16.800Z,12.13
2018-11-28T10:40:25.888Z,13.10
2018-11-28T10:42:34.108Z,14.63
2018-11-28T10:44:42.112Z,11.43
2018-11-28T10:46:51.357Z,11.73
2018-11-28T10:49:00.179Z,11.40
2018-11-28T10:51:09.265Z,12.17
2018-11-28T10:53:19.109Z,12.87
2018-11-28T10:55:28.842Z,13.13
2018-11-28T10:57:36.783Z,13.50
2018-11-28T10:59:44.900Z,12.80
2018-11-28T11:02:12.165Z,12.30
2018-11-28T11:04:26.206Z,11.75
2018-11-28T11:06:51.758Z,12.07
2018-11-28T11:09:17.228Z,11.18
2018-11-28T11:11:27.505Z,12.00
2018-11-28T11:13:53.230Z,11.07
2018-11-28T11:16:01.649Z,11.33
2018-11-28T11:18:11.842Z,10.80
2018-11-28T11:20:20.524Z,12.10
2018-11-28T11:22:28.583Z,11.60
2018-11-28T11:24:36.765Z,11.03
2018-11-28T11:26:46.116Z,12.03
2018-11-28T11:28:54.146Z,13.30
2018-11-28T11:31:02.869Z,28.67
2018-11-28T11:33:11.180Z,13.73
2018-11-28T11:35:19.566Z,11.00
2018-11-28T11:37:27.875Z,11.70
2018-11-28T11:39:36.531Z,11.20
2018-11-28T11:41:44.503Z,12.30
2018-11-28T11:43:52.825Z,12.27
2018-11-28T11:46:00.911Z,13.20
2018-11-28T11:48:10.931Z,13.93
2018-11-28T11:50:22.472Z,10.53
2018-11-28T11:52:30.567Z,11.20
2018-11-28T11:54:39.376Z,11.57
2018-11-28T11:56:47.422Z,12.33
2018-11-28T11:58:55.796Z,12.73
2018-11-28T12:01:03.929Z,10.65
2018-11-28T12:03:16.946Z,9.80
2018-11-28T12:05:26.018Z,10.40
2018-11-28T12:07:34.210Z,11.50
2018-11-28T12:09:42.913Z,11.47
2018-11-28T12:11:52.072Z,11.17
2018-11-28T12:14:00.312Z,11.57
2018-11-28T12:16:08.546Z,10.77
2018-11-28T12:18:16.829Z,12.00
2018-11-28T12:20:57.553Z,12.60
2018-11-28T12:23:05.830Z,10.00
2018-11-28T12:25:14.964Z,10.65
2018-11-28T12:27:23.093Z,10.50
2018-11-28T12:29:32.049Z,10.43
2018-11-28T12:31:40.584Z,10.40
2018-11-28T12:33:48.801Z,12.00
2018-11-28T12:35:56.904Z,11.20
2018-11-28T12:38:05.304Z,12.67
2018-11-28T12:40:15.498Z,12.20
2018-11-28T12:46:40.487Z,10.33
2018-11-28T12:48:49.666Z,10.40
2018-11-28T12:50:58.029Z,10.80
2018-11-28T12:53:07.726Z,11.13
2018-11-28T12:55:16.210Z,9.83
2018-11-28T12:57:25.037Z,9.40
2018-11-28T12:59:33.114Z,10.23
2018-11-28T13:01:41.827Z,9.57
2018-11-28T13:03:50.048Z,12.30
2018-11-28T13:05:58.248Z,32.73
2018-11-28T13:08:08.712Z,17.45
2018-11-28T13:10:29.852Z,13.00
2018-11-28T13:12:38.073Z,14.20
2018-11-28T13:14:47.644Z,11.17
2018-11-28T13:16:56.245Z,10.50
2018-11-28T13:19:04.857Z,9.50
2018-11-28T13:21:13.142Z,8.38
2018-11-28T13:23:22.825Z,9.80
2018-11-28T13:25:31.454Z,8.20
2018-11-28T13:27:40.788Z,9.13
2018-11-28T13:29:48.904Z,8.37
2018-11-28T13:31:56.919Z,8.73
2018-11-28T13:34:05.118Z,9.50
2018-11-28T13:36:13.381Z,9.00
2018-11-28T13:40:30.131Z,10.10
2018-11-28T13:42:38.109Z,11.10
2018-11-28T13:44:46.570Z,9.03
2018-11-28T13:46:54.840Z,8.23
2018-11-28T13:49:03.470Z,9.00
2018-11-28T13:51:11.609Z,8.57
2018-11-28T13:53:20.386Z,8.77
2018-11-28T13:56:57.478Z,13.80
2018-11-28T13:58:04.513Z,13.40
2018-11-28T14:00:12.863Z,10.87
2018-11-28T14:02:22.015Z,12.60
2018-11-28T14:04:30.138Z,10.63
2018-11-28T14:06:38.428Z,10.00
2018-11-28T14:08:46.567Z,8.10
2018-11-28T14:10:54.547Z,9.87
2018-11-28T14:13:03.281Z,10.13
2018-11-28T14:15:22.894Z,9.40
2018-11-28T14:17:31.102Z,9.80
2018-11-28T14:19:39.128Z,11.67
2018-11-28T14:21:47.419Z,9.83
2018-11-28T14:23:55.642Z,11.03
2018-11-28T14:26:03.642Z,13.43
2018-11-28T14:28:13.318Z,10.47
2018-11-28T14:30:27.883Z,12.97
2018-11-28T14:32:35.866Z,12.53
2018-11-28T14:34:44.356Z,11.60
2018-11-28T14:36:52.477Z,11.17
2018-11-28T14:39:00.458Z,11.10
2018-11-28T14:41:09.039Z,11.00
2018-11-28T14:43:17.130Z,12.90
2018-11-28T14:45:25.782Z,22.57
2018-11-28T14:47:33.841Z,12.80
2018-11-28T14:49:41.943Z,9.13
2018-11-28T14:51:50.456Z,9.53
2018-11-28T14:53:58.909Z,9.30
2018-11-28T14:56:07.603Z,9.07
2018-11-28T14:58:16.432Z,8.93
2018-11-28T15:00:32.543Z,9.00
2018-11-28T15:02:40.624Z,8.67
2018-11-28T15:04:48.684Z,9.13
2018-11-28T15:07:02.214Z,8.60
2018-11-28T15:09:29.427Z,7.87
2018-11-28T15:11:37.400Z,8.57
2018-11-28T15:13:46.069Z,8.57
2018-11-28T15:15:54.282Z,9.27
2018-11-28T15:18:03.568Z,8.60
2018-11-28T15:20:12.579Z,10.53
2018-11-28T15:22:20.673Z,9.70
2018-11-28T15:24:28.826Z,9.93
2018-11-28T15:26:36.838Z,9.30
2018-11-28T15:28:45.027Z,10.10
2018-11-28T15:30:56.635Z,9.13
2018-11-28T15:33:04.716Z,8.58
2018-11-28T15:35:12.939Z,8.10
2018-11-28T15:37:21.554Z,8.13
2018-11-28T15:39:29.827Z,8.65
2018-11-28T15:41:38.710Z,10.00
2018-11-28T15:43:46.749Z,7.13
2018-11-28T15:45:54.726Z,8.10
2018-11-28T15:48:03.863Z,9.16
2018-11-28T15:50:12.359Z,8.57
2018-11-28T15:52:20.527Z,7.97
2018-11-28T15:54:29.106Z,8.53
2018-11-28T15:56:37.060Z,8.63
2018-11-28T15:58:45.897Z,7.67
2018-11-28T16:00:54.219Z,8.27
2018-11-28T16:03:03.532Z,8.37
2018-11-28T16:05:11.648Z,7.97
2018-11-28T16:07:19.626Z,8.60
2018-11-28T16:09:44.853Z,8.03
2018-11-28T16:11:53.121Z,8.20
2018-11-28T16:14:01.261Z,8.53
2018-11-28T16:16:10.283Z,15.27
2018-11-28T16:18:18.311Z,16.63
2018-11-28T16:20:26.304Z,21.27
2018-11-28T16:22:34.353Z,16.43
2018-11-28T16:24:42.427Z,23.67
2018-11-28T16:26:50.522Z,25.10
2018-11-28T16:28:58.699Z,18.67
2018-11-28T16:31:06.755Z,17.87
2018-11-28T16:33:14.922Z,13.37
2018-11-28T16:35:23.449Z,12.97
2018-11-28T16:37:31.578Z,13.73
2018-11-28T16:39:39.592Z,14.20
2018-11-28T16:41:47.969Z,9.23
2018-11-28T16:43:56.085Z,8.73
2018-11-28T16:46:05.311Z,10.07
2018-11-28T16:48:13.331Z,10.63
2018-11-28T16:50:24.796Z,16.03
2018-11-28T16:52:33.721Z,11.65
2018-11-28T16:54:42.780Z,10.60
2018-11-28T16:56:50.975Z,24.12
2018-11-28T16:58:59.973Z,15.57
2018-11-28T17:01:09.000Z,12.43
2018-11-28T17:03:17.437Z,10.67
2018-11-28T17:05:25.940Z,9.60
2018-11-28T17:07:34.123Z,8.97
2018-11-28T17:09:42.331Z,9.27
2018-11-28T17:11:50.320Z,9.43
2018-11-28T17:13:58.522Z,15.83
2018-11-28T17:16:06.703Z,15.10
2018-11-28T17:18:14.939Z,15.00
2018-11-28T17:20:32.592Z,13.67
2018-11-28T17:22:40.938Z,10.87
2018-11-28T17:24:49.057Z,9.33
2018-11-28T17:26:58.032Z,9.60
2018-11-28T17:29:07.866Z,8.97
2018-11-28T17:31:16.009Z,8.47
2018-11-28T17:33:24.142Z,9.00
2018-11-28T17:35:32.884Z,8.40
2018-11-28T17:37:41.379Z,8.70
2018-11-28T17:39:49.441Z,9.13
2018-11-28T17:41:57.538Z,9.03
2018-11-28T17:44:05.591Z,8.83
2018-11-28T17:46:13.849Z,8.30
2018-11-28T17:48:22.703Z,8.97
2018-11-28T17:50:30.993Z,13.23
2018-11-28T17:52:39.958Z,12.53
2018-11-28T17:54:47.966Z,11.97
2018-11-28T17:56:56.217Z,11.00
2018-11-28T17:59:04.229Z,9.10
2018-11-28T18:01:12.524Z,9.80
2018-11-28T18:03:21.451Z,9.80
2018-11-28T18:05:29.626Z,9.13
2018-11-28T18:07:37.918Z,9.17
2018-11-28T18:09:46.433Z,10.28
2018-11-28T18:11:54.576Z,9.97
2018-11-28T18:14:04.405Z,11.00
2018-11-28T18:16:13.046Z,9.70
2018-11-28T18:18:23.176Z,11.07
2018-11-28T18:20:31.375Z,11.17
2018-11-28T18:22:39.367Z,9.60
2018-11-28T18:24:47.422Z,9.43
2018-11-28T18:26:55.766Z,9.57
2018-11-28T18:29:04.150Z,10.25
2018-11-28T18:31:12.467Z,13.00
2018-11-28T18:33:21.455Z,13.83
2018-11-28T18:35:29.947Z,11.90
2018-11-28T18:37:38.760Z,12.37
2018-11-28T18:39:47.085Z,9.37
2018-11-28T18:41:55.382Z,9.20
2018-11-28T18:44:04.163Z,9.30
2018-11-28T18:46:12.284Z,9.43
2018-11-28T18:48:20.596Z,9.77
2018-11-28T18:50:28.907Z,9.07
2018-11-28T18:52:37.059Z,8.17
2018-11-28T18:54:45.279Z,9.03
2018-11-28T18:56:53.666Z,9.17
2018-11-28T18:59:01.811Z,8.10
2018-11-28T19:01:10.676Z,8.73
2018-11-28T19:03:19.561Z,8.87
2018-11-28T19:05:27.949Z,8.57
2018-11-28T19:07:36.447Z,9.10
2018-11-28T19:09:53.659Z,9.43
2018-11-28T19:12:01.788Z,9.30
2018-11-28T19:14:12.289Z,9.67
2018-11-28T19:16:19.137Z,9.73
2018-11-28T19:18:27.803Z,8.60
2018-11-28T19:20:35.984Z,8.30
2018-11-28T19:22:44.537Z,8.10
2018-11-28T19:24:52.786Z,7.90
2018-11-28T19:27:01.364Z,9.20
2018-11-28T19:29:09.664Z,8.20
2018-11-28T19:31:18.600Z,8.70
2018-11-28T19:33:26.772Z,8.37
2018-11-28T19:35:34.879Z,8.73
2018-11-28T19:37:44.027Z,8.40
2018-11-28T19:39:52.216Z,7.80
2018-11-28T19:42:00.532Z,9.30
2018-11-28T19:44:09.427Z,11.15
2018-11-28T19:46:17.736Z,11.70
2018-11-28T19:48:25.807Z,11.27
2018-11-28T19:50:35.829Z,19.07
2018-11-28T19:52:44.306Z,11.53
2018-11-28T19:54:52.584Z,10.80
2018-11-28T19:57:00.818Z,10.37
2018-11-28T19:59:10.330Z,9.68
2018-11-28T20:01:21.570Z,9.20
2018-11-28T20:03:30.510Z,9.40
2018-11-28T20:05:39.069Z,9.90
2018-11-28T20:07:51.862Z,9.15
2018-11-28T20:10:02.296Z,9.27
2018-11-28T20:12:11.386Z,9.53
2018-11-28T20:14:19.605Z,9.90
2018-11-28T20:16:27.791Z,8.40
2018-11-28T20:18:36.027Z,8.30
2018-11-28T20:20:44.276Z,7.83
2018-11-28T20:22:52.615Z,7.65
2018-11-28T20:25:01.256Z,8.83
2018-11-28T20:27:09.608Z,8.03
2018-11-28T20:29:17.912Z,9.20
2018-11-28T20:31:26.334Z,8.50
2018-11-28T20:33:34.539Z,8.50
2018-11-28T20:35:44.420Z,9.00
2018-11-28T20:37:52.665Z,8.67
2018-11-28T20:40:01.215Z,9.20
2018-11-28T20:42:10.212Z,8.90
2018-11-28T20:44:18.382Z,9.10
2018-11-28T20:46:26.754Z,8.53
2018-11-28T20:48:35.337Z,8.20
2018-11-28T20:50:44.390Z,9.07
2018-11-28T20:52:55.318Z,8.05
2018-11-28T20:55:05.214Z,7.44
2018-11-28T20:57:17.356Z,8.87
2018-11-28T20:59:22.277Z,8.77
2018-11-28T21:01:30.613Z,8.95
2018-11-28T21:03:38.799Z,8.60
2018-11-28T21:05:46.867Z,9.03
2018-11-28T21:07:55.176Z,9.50
2018-11-28T21:10:21.675Z,8.50
2018-11-28T21:12:30.055Z,8.10
2018-11-28T21:14:38.444Z,9.43
2018-11-28T21:16:46.610Z,9.90
2018-11-28T21:18:54.982Z,9.27
2018-11-28T21:21:04.780Z,9.20
2018-11-28T21:23:20.678Z,8.13
2018-11-28T21:25:28.914Z,9.10
2018-11-28T21:27:37.320Z,8.80
2018-11-28T21:29:45.483Z,8.60
2018-11-28T21:31:53.560Z,8.15
2018-11-28T21:34:01.748Z,7.90
2018-11-28T21:36:10.495Z,8.70
2018-11-28T21:38:19.463Z,8.05
2018-11-28T21:40:27.744Z,8.47
2018-11-28T21:42:36.783Z,8.73
2018-11-28T21:44:44.957Z,9.30
2018-11-28T21:46:53.229Z,9.00
2018-11-28T21:49:02.239Z,8.47
2018-11-28T21:51:10.237Z,8.20
2018-11-28T21:53:18.370Z,7.83
2018-11-28T21:55:27.645Z,9.53
2018-11-28T21:57:35.682Z,9.87
2018-11-28T21:59:43.828Z,10.57
2018-11-28T22:01:52.074Z,10.63
2018-11-28T22:04:00.223Z,10.10
2018-11-28T22:06:08.466Z,9.83
2018-11-28T22:08:16.709Z,9.50
2018-11-28T22:10:30.637Z,9.90
2018-11-28T22:12:38.814Z,9.30
2018-11-28T22:14:47.260Z,10.10
2018-11-28T22:16:55.331Z,8.70
2018-11-28T22:19:04.639Z,9.03
2018-11-28T22:21:13.240Z,10.60
2018-11-28T22:23:21.311Z,10.50
2018-11-28T22:25:29.734Z,9.80
2018-11-28T22:27:37.868Z,8.80
2018-11-28T22:29:46.210Z,9.27
2018-11-28T22:31:54.604Z,9.53
2018-11-28T22:34:07.595Z,9.10
2018-11-28T22:36:15.957Z,9.30
2018-11-28T22:38:24.406Z,10.13
2018-11-28T22:40:33.508Z,11.20
2018-11-28T22:42:41.690Z,10.10
2018-11-28T22:44:49.868Z,9.67
2018-11-28T22:46:57.942Z,8.73
2018-11-28T22:49:06.138Z,10.27
2018-11-28T22:51:14.116Z,9.25
2018-11-28T22:53:22.147Z,9.47
2018-11-28T22:55:30.207Z,9.63
2018-11-28T22:57:38.767Z,10.20
2018-11-28T22:59:47.288Z,9.50
2018-11-28T23:02:50.605Z,9.40
2018-11-28T23:04:59.845Z,9.98
2018-11-28T23:07:08.968Z,9.58
2018-11-28T23:09:17.298Z,9.00
2018-11-28T23:11:25.754Z,8.80
2018-11-28T23:13:33.837Z,9.75
2018-11-28T23:15:41.859Z,9.53
2018-11-28T23:17:55.015Z,9.10
2018-11-28T23:19:59.528Z,9.73
2018-11-28T23:22:07.508Z,10.40
2018-11-28T23:24:15.718Z,9.60
2018-11-28T23:26:24.157Z,11.40
2018-11-28T23:28:32.710Z,10.00
2018-11-28T23:30:41.081Z,9.98
2018-11-28T23:32:50.785Z,9.60
2018-11-28T23:34:59.206Z,9.70
2018-11-28T23:37:08.457Z,9.20
2018-11-28T23:39:16.662Z,9.60
2018-11-28T23:41:24.732Z,8.83
2018-11-28T23:43:32.747Z,9.60
2018-11-28T23:45:40.848Z,9.83
2018-11-28T23:47:49.122Z,9.30
2018-11-28T23:49:57.333Z,11.37
2018-11-28T23:52:06.234Z,9.70
2018-11-28T23:54:14.206Z,9.40
2018-11-28T23:56:22.501Z,10.40
2018-11-28T23:58:30.746Z,9.30
